sensor_id;sensor_type;location;lat;lon;timestamp;pressure;altitude;pressure_sealevel;temperature;humidity
48053;BME280;33824;51.600;5.718;2023-08-06T00:00:38;100216.47;;;17.42;100.00
48053;BME280;33824;51.600;5.718;2023-08-06T00:03:24;100208.00;;;17.39;100.00
48053;BME280;33824;51.600;5.718;2023-08-06T00:05:49;100213.38;;;17.39;100.00
48053;BME280;33824;51.600;5.718;2023-08-06T00:08:15;100211.28;;;17.41;100.00
48053;BME280;33824;51.600;5.718;2023-08-06T00:10:41;100214.34;;;17.44;100.00
48053;BME280;33824;51.600;5.718;2023-08-06T00:13:09;100209.16;;;17.43;100.00
48053;BME280;33824;51.600;5.718;2023-08-06T00:15:35;100206.13;;;17.51;100.00
48053;BME280;33824;51.600;5.718;2023-08-06T00:18:00;100198.38;;;17.54;100.00
48053;BME280;33824;51.600;5.718;2023-08-06T00:20:26;100203.22;;;17.52;100.00
48053;BME280;33824;51.600;5.718;2023-08-06T00:22:52;100204.50;;;17.50;100.00
48053;BME280;33824;51.600;5.718;2023-08-06T00:25:17;100194.28;;;17.52;100.00
48053;BME280;33824;51.600;5.718;2023-08-06T00:27:43;100196.78;;;17.53;100.00
48053;BME280;33824;51.600;5.718;2023-08-06T00:30:09;100191.81;;;17.50;100.00
48053;BME280;33824;51.600;5.718;2023-08-06T00:32:34;100184.81;;;17.49;100.00
48053;BME280;33824;51.600;5.718;2023-08-06T00:35:00;100197.13;;;17.45;100.00
48053;BME280;33824;51.600;5.718;2023-08-06T00:37:26;100192.78;;;17.44;100.00
48053;BME280;33824;51.600;5.718;2023-08-06T00:39:51;100185.50;;;17.45;100.00
48053;BME280;33824;51.600;5.718;2023-08-06T00:42:17;100187.03;;;17.41;100.00
48053;BME280;33824;51.600;5.718;2023-08-06T00:44:46;100184.34;;;17.41;100.00
48053;BME280;33824;51.600;5.718;2023-08-06T00:47:11;100186.44;;;17.39;100.00
48053;BME280;33824;51.600;5.718;2023-08-06T00:49:38;100190.19;;;17.38;100.00
48053;BME280;33824;51.600;5.718;2023-08-06T00:52:05;100186.06;;;17.35;100.00
48053;BME280;33824;51.600;5.718;2023-08-06T00:54:32;100182.00;;;17.33;100.00
48053;BME280;33824;51.600;5.718;2023-08-06T00:56:59;100183.63;;;17.34;100.00
48053;BME280;33824;51.600;5.718;2023-08-06T00:59:27;100182.34;;;17.36;100.00
48053;BME280;33824;51.600;5.718;2023-08-06T01:01:52;100187.25;;;17.39;100.00
48053;BME280;33824;51.600;5.718;2023-08-06T01:04:18;100181.16;;;17.44;100.00
48053;BME280;33824;51.600;5.718;2023-08-06T01:09:36;100193.59;;;17.33;100.00
48053;BME280;33824;51.600;5.718;2023-08-06T01:12:24;100186.69;;;17.25;100.00
48053;BME280;33824;51.600;5.718;2023-08-06T01:14:59;100191.38;;;17.30;100.00
48053;BME280;33824;51.600;5.718;2023-08-06T01:17:29;100185.63;;;17.38;100.00
48053;BME280;33824;51.600;5.718;2023-08-06T01:19:56;100187.03;;;17.41;100.00
48053;BME280;33824;51.600;5.718;2023-08-06T01:22:21;100183.75;;;17.39;100.00
48053;BME280;33824;51.600;5.718;2023-08-06T01:24:48;100183.16;;;17.37;100.00
48053;BME280;33824;51.600;5.718;2023-08-06T01:27:23;100171.69;;;17.30;100.00
48053;BME280;33824;51.600;5.718;2023-08-06T01:30:21;100181.97;;;17.21;100.00
48053;BME280;33824;51.600;5.718;2023-08-06T01:32:50;100184.91;;;17.31;100.00
48053;BME280;33824;51.600;5.718;2023-08-06T01:35:19;100181.78;;;17.34;100.00
48053;BME280;33824;51.600;5.718;2023-08-06T01:37:45;100178.25;;;17.34;100.00
48053;BME280;33824;51.600;5.718;2023-08-06T01:40:12;100180.94;;;17.34;100.00
48053;BME280;33824;51.600;5.718;2023-08-06T01:42:38;100182.00;;;17.33;100.00
48053;BME280;33824;51.600;5.718;2023-08-06T01:45:08;100170.72;;;17.36;100.00
48053;BME280;33824;51.600;5.718;2023-08-06T01:47:33;100187.50;;;17.38;100.00
48053;BME280;33824;51.600;5.718;2023-08-06T01:49:59;100169.56;;;17.43;100.00
48053;BME280;33824;51.600;5.718;2023-08-06T01:52:26;100178.00;;;17.47;100.00
48053;BME280;33824;51.600;5.718;2023-08-06T01:54:52;100174.03;;;17.49;100.00
48053;BME280;33824;51.600;5.718;2023-08-06T01:57:17;100174.84;;;17.50;100.00
48053;BME280;33824;51.600;5.718;2023-08-06T01:59:43;100175.44;;;17.52;100.00
48053;BME280;33824;51.600;5.718;2023-08-06T02:02:08;100176.81;;;17.54;100.00
48053;BME280;33824;51.600;5.718;2023-08-06T02:04:34;100180.59;;;17.53;100.00
48053;BME280;33824;51.600;5.718;2023-08-06T02:06:59;100180.34;;;17.55;100.00
48053;BME280;33824;51.600;5.718;2023-08-06T02:09:25;100173.34;;;17.54;100.00
48053;BME280;33824;51.600;5.718;2023-08-06T02:11:50;100177.66;;;17.55;100.00
48053;BME280;33824;51.600;5.718;2023-08-06T02:14:16;100176.81;;;17.54;100.00
48053;BME280;33824;51.600;5.718;2023-08-06T02:16:42;100182.22;;;17.54;100.00
48053;BME280;33824;51.600;5.718;2023-08-06T02:19:08;100178.28;;;17.57;100.00
48053;BME280;33824;51.600;5.718;2023-08-06T02:21:35;100173.81;;;17.62;100.00
48053;BME280;33824;51.600;5.718;2023-08-06T02:24:01;100177.31;;;17.63;100.00
48053;BME280;33824;51.600;5.718;2023-08-06T02:26:27;100176.28;;;17.64;100.00
48053;BME280;33824;51.600;5.718;2023-08-06T02:28:53;100166.53;;;17.63;100.00
48053;BME280;33824;51.600;5.718;2023-08-06T02:31:18;100167.38;;;17.63;100.00
48053;BME280;33824;51.600;5.718;2023-08-06T02:33:43;100165.25;;;17.65;100.00
48053;BME280;33824;51.600;5.718;2023-08-06T02:36:09;100166.88;;;17.66;100.00
48053;BME280;33824;51.600;5.718;2023-08-06T02:38:34;100166.41;;;17.69;100.00
48053;BME280;33824;51.600;5.718;2023-08-06T02:41:03;100163.97;;;17.68;100.00
48053;BME280;33824;51.600;5.718;2023-08-06T02:43:29;100159.25;;;17.75;100.00
48053;BME280;33824;51.600;5.718;2023-08-06T02:45:59;100162.44;;;17.72;100.00
48053;BME280;33824;51.600;5.718;2023-08-06T02:48:24;100145.78;;;17.75;100.00
48053;BME280;33824;51.600;5.718;2023-08-06T02:50:50;100150.34;;;17.74;100.00
48053;BME280;33824;51.600;5.718;2023-08-06T02:53:15;100154.69;;;17.76;100.00
48053;BME280;33824;51.600;5.718;2023-08-06T02:55:46;100155.41;;;17.71;100.00
48053;BME280;33824;51.600;5.718;2023-08-06T02:58:15;100155.97;;;17.73;100.00
48053;BME280;33824;51.600;5.718;2023-08-06T03:00:41;100153.28;;;17.73;100.00
48053;BME280;33824;51.600;5.718;2023-08-06T03:03:07;100153.53;;;17.71;100.00
48053;BME280;33824;51.600;5.718;2023-08-06T03:05:33;100153.53;;;17.71;100.00
48053;BME280;33824;51.600;5.718;2023-08-06T03:07:58;100160.78;;;17.71;100.00
48053;BME280;33824;51.600;5.718;2023-08-06T03:10:23;100148.69;;;17.73;100.00
48053;BME280;33824;51.600;5.718;2023-08-06T03:12:49;100151.19;;;17.75;100.00
48053;BME280;33824;51.600;5.718;2023-08-06T03:15:15;100146.00;;;17.73;100.00
48053;BME280;33824;51.600;5.718;2023-08-06T03:17:40;100148.69;;;17.73;100.00
48053;BME280;33824;51.600;5.718;2023-08-06T03:20:06;100140.38;;;17.75;100.00
48053;BME280;33824;51.600;5.718;2023-08-06T03:22:32;100148.00;;;17.66;100.00
48053;BME280;33824;51.600;5.718;2023-08-06T03:24:57;100148.97;;;17.60;100.00
48053;BME280;33824;51.600;5.718;2023-08-06T03:27:23;100147.09;;;17.49;100.00
48053;BME280;33824;51.600;5.718;2023-08-06T03:29:49;100147.19;;;17.43;100.00
48053;BME280;33824;51.600;5.718;2023-08-06T03:32:15;100145.44;;;17.37;100.00
48053;BME280;33824;51.600;5.718;2023-08-06T03:34:43;100141.91;;;17.36;100.00
48053;BME280;33824;51.600;5.718;2023-08-06T03:37:08;100144.03;;;17.34;100.00
48053;BME280;33824;51.600;5.718;2023-08-06T03:39:34;100150.47;;;17.33;100.00
48053;BME280;33824;51.600;5.718;2023-08-06T03:41:59;100148.59;;;17.34;100.00
48053;BME280;33824;51.600;5.718;2023-08-06T03:44:25;100142.41;;;17.33;100.00
48053;BME280;33824;51.600;5.718;2023-08-06T03:46:52;100146.13;;;17.32;100.00
48053;BME280;33824;51.600;5.718;2023-08-06T03:49:17;100139.91;;;17.32;100.00
48053;BME280;33824;51.600;5.718;2023-08-06T03:51:43;100147.78;;;17.33;100.00
48053;BME280;33824;51.600;5.718;2023-08-06T03:54:09;100146.13;;;17.32;100.00
48053;BME280;33824;51.600;5.718;2023-08-06T03:56:34;100141.22;;;17.29;100.00
48053;BME280;33824;51.600;5.718;2023-08-06T03:59:00;100145.44;;;17.25;100.00
48053;BME280;33824;51.600;5.718;2023-08-06T04:01:25;100141.91;;;17.24;100.00
48053;BME280;33824;51.600;5.718;2023-08-06T04:03:51;100138.88;;;17.21;100.00
48053;BME280;33824;51.600;5.718;2023-08-06T04:06:16;100140.16;;;17.18;100.00
48053;BME280;33824;51.600;5.718;2023-08-06T04:08:42;100143.69;;;17.19;100.00
48053;BME280;33824;51.600;5.718;2023-08-06T04:11:07;100143.69;;;17.19;100.00
48053;BME280;33824;51.600;5.718;2023-08-06T04:13:33;100152.69;;;17.24;100.00
48053;BME280;33824;51.600;5.718;2023-08-06T04:16:02;100145.91;;;17.22;100.00
48053;BME280;33824;51.600;5.718;2023-08-06T04:18:28;100145.31;;;17.32;100.00
48053;BME280;33824;51.600;5.718;2023-08-06T04:20:54;100151.66;;;17.37;100.00
48053;BME280;33824;51.600;5.718;2023-08-06T04:23:20;100167.94;;;17.42;100.00
48053;BME280;33824;51.600;5.718;2023-08-06T04:25:46;100166.28;;;17.41;100.00
48053;BME280;33824;51.600;5.718;2023-08-06T04:28:11;100165.69;;;17.39;100.00
48053;BME280;33824;51.600;5.718;2023-08-06T04:30:37;100166.28;;;17.41;100.00
48053;BME280;33824;51.600;5.718;2023-08-06T04:33:05;100170.03;;;17.40;100.00
48053;BME280;33824;51.600;5.718;2023-08-06T04:35:31;100168.75;;;17.43;100.00
48053;BME280;33824;51.600;5.718;2023-08-06T04:37:57;100165.00;;;17.44;100.00
48053;BME280;33824;51.600;5.718;2023-08-06T04:40:22;100165.34;;;17.47;100.00
48053;BME280;33824;51.600;5.718;2023-08-06T04:42:48;100168.72;;;17.54;100.00
48053;BME280;33824;51.600;5.718;2023-08-06T04:45:13;100170.38;;;17.55;100.00
48053;BME280;33824;51.600;5.718;2023-08-06T04:47:39;100166.78;;;17.61;100.00
48053;BME280;33824;51.600;5.718;2023-08-06T04:50:05;100173.94;;;17.67;100.00
48053;BME280;33824;51.600;5.718;2023-08-06T04:52:30;100169.34;;;17.68;100.00
48053;BME280;33824;51.600;5.718;2023-08-06T04:54:57;100182.50;;;17.64;100.00
48053;BME280;33824;51.600;5.718;2023-08-06T04:57:23;100180.50;;;17.60;100.00
48053;BME280;33824;51.600;5.718;2023-08-06T04:59:48;100176.41;;;17.57;100.00
48053;BME280;33824;51.600;5.718;2023-08-06T05:02:14;100179.28;;;17.56;100.00
48053;BME280;33824;51.600;5.718;2023-08-06T05:04:40;100186.44;;;17.50;100.00
48053;BME280;33824;51.600;5.718;2023-08-06T05:07:05;100182.34;;;17.48;100.00
48053;BME280;33824;51.600;5.718;2023-08-06T05:09:31;100189.06;;;17.57;100.00
48053;BME280;33824;51.600;5.718;2023-08-06T05:11:56;100189.75;;;17.64;100.00
48053;BME280;33824;51.600;5.718;2023-08-06T05:14:24;100188.81;;;17.70;100.00
48053;BME280;33824;51.600;5.718;2023-08-06T05:16:49;100187.06;;;17.76;100.00
48053;BME280;33824;51.600;5.718;2023-08-06T05:19:15;100186.91;;;17.82;100.00
48053;BME280;33824;51.600;5.718;2023-08-06T05:21:40;100188.78;;;17.82;100.00
48053;BME280;33824;51.600;5.718;2023-08-06T05:24:06;100195.69;;;17.89;100.00
48053;BME280;33824;51.600;5.718;2023-08-06T05:26:31;100191.66;;;18.03;100.00
48053;BME280;33824;51.600;5.718;2023-08-06T05:28:57;100201.53;;;18.09;100.00
48053;BME280;33824;51.600;5.718;2023-08-06T05:31:22;100205.25;;;18.20;100.00
48053;BME280;33824;51.600;5.718;2023-08-06T05:33:48;100196.06;;;18.33;100.00
48053;BME280;33824;51.600;5.718;2023-08-06T05:36:13;100199.78;;;18.43;100.00
48053;BME280;33824;51.600;5.718;2023-08-06T05:38:39;100205.50;;;18.47;100.00
48053;BME280;33824;51.600;5.718;2023-08-06T05:41:04;100208.81;;;18.49;100.00
48053;BME280;33824;51.600;5.718;2023-08-06T05:43:30;100205.75;;;18.45;100.00
48053;BME280;33824;51.600;5.718;2023-08-06T05:45:56;100207.31;;;18.41;100.00
48053;BME280;33824;51.600;5.718;2023-08-06T05:48:21;100213.28;;;18.43;100.00
48053;BME280;33824;51.600;5.718;2023-08-06T05:50:49;100227.25;;;18.52;100.00
48053;BME280;33824;51.600;5.718;2023-08-06T05:53:15;100224.19;;;18.48;100.00
48053;BME280;33824;51.600;5.718;2023-08-06T05:55:41;100234.47;;;18.63;100.00
48053;BME280;33824;51.600;5.718;2023-08-06T05:58:06;100222.38;;;18.65;100.00
48053;BME280;33824;51.600;5.718;2023-08-06T06:00:32;100225.56;;;18.62;100.00
48053;BME280;33824;51.600;5.718;2023-08-06T06:02:58;100240.44;;;18.65;100.00
48053;BME280;33824;51.600;5.718;2023-08-06T06:05:23;100233.38;;;18.76;100.00
48053;BME280;33824;51.600;5.718;2023-08-06T06:07:49;100244.63;;;19.01;100.00
48053;BME280;33824;51.600;5.718;2023-08-06T06:10:14;100243.25;;;19.15;100.00
48053;BME280;33824;51.600;5.718;2023-08-06T06:12:40;100250.47;;;19.26;100.00
48053;BME280;33824;51.600;5.718;2023-08-06T06:15:06;100242.53;;;19.36;100.00
48053;BME280;33824;51.600;5.718;2023-08-06T06:17:32;100247.84;;;19.31;100.00
48053;BME280;33824;51.600;5.718;2023-08-06T06:19:57;100246.03;;;19.37;100.00
48053;BME280;33824;51.600;5.718;2023-08-06T06:22:23;100249.19;;;19.45;100.00
48053;BME280;33824;51.600;5.718;2023-08-06T06:24:48;100251.88;;;19.45;100.00
48053;BME280;33824;51.600;5.718;2023-08-06T06:27:14;100252.16;;;19.44;100.00
48053;BME280;33824;51.600;5.718;2023-08-06T06:29:39;100267.38;;;19.50;100.00
48053;BME280;33824;51.600;5.718;2023-08-06T06:32:05;100267.69;;;19.53;100.00
48053;BME280;33824;51.600;5.718;2023-08-06T06:34:31;100265.91;;;19.59;100.00
48053;BME280;33824;51.600;5.718;2023-08-06T06:36:56;100269.34;;;19.54;100.00
48053;BME280;33824;51.600;5.718;2023-08-06T06:39:22;100273.09;;;19.53;100.00
48053;BME280;33824;51.600;5.718;2023-08-06T06:41:47;100269.53;;;19.48;100.00
48053;BME280;33824;51.600;5.718;2023-08-06T06:44:13;100281.44;;;19.52;100.00
48053;BME280;33824;51.600;5.718;2023-08-06T06:46:39;100283.50;;;19.45;100.00
48053;BME280;33824;51.600;5.718;2023-08-06T06:49:04;100290.38;;;19.36;100.00
48053;BME280;33824;51.600;5.718;2023-08-06T06:51:30;100284.94;;;19.19;100.00
48053;BME280;33824;51.600;5.718;2023-08-06T06:53:57;100285.25;;;19.23;100.00
48053;BME280;33824;51.600;5.718;2023-08-06T06:56:22;100287.56;;;19.31;100.00
48053;BME280;33824;51.600;5.718;2023-08-06T06:58:48;100299.63;;;19.40;100.00
48053;BME280;33824;51.600;5.718;2023-08-06T07:01:14;100290.78;;;19.44;100.00
48053;BME280;33824;51.600;5.718;2023-08-06T07:03:39;100297.13;;;19.50;100.00
48053;BME280;33824;51.600;5.718;2023-08-06T07:06:05;100304.31;;;19.44;99.35
48053;BME280;33824;51.600;5.718;2023-08-06T07:08:31;100303.16;;;19.40;99.55
48053;BME280;33824;51.600;5.718;2023-08-06T07:11:04;100302.72;;;19.32;99.26
48053;BME280;33824;51.600;5.718;2023-08-06T07:13:29;100305.63;;;19.42;99.61
48053;BME280;33824;51.600;5.718;2023-08-06T07:15:55;100303.34;;;19.50;99.23
48053;BME280;33824;51.600;5.718;2023-08-06T07:18:21;100303.03;;;19.47;99.09
48053;BME280;33824;51.600;5.718;2023-08-06T07:20:49;100308.81;;;19.39;98.79
48053;BME280;33824;51.600;5.718;2023-08-06T07:23:14;100307.97;;;19.38;98.98
48053;BME280;33824;51.600;5.718;2023-08-06T07:25:40;100310.63;;;19.50;99.45
48053;BME280;33824;51.600;5.718;2023-08-06T07:28:05;100309.09;;;19.54;99.03
48053;BME280;33824;51.600;5.718;2023-08-06T07:30:31;100324.50;;;19.53;98.91
48053;BME280;33824;51.600;5.718;2023-08-06T07:32:57;100316.88;;;19.50;98.73
48053;BME280;33824;51.600;5.718;2023-08-06T07:35:23;100321.56;;;19.55;98.62
48053;BME280;33824;51.600;5.718;2023-08-06T07:37:49;100326.97;;;19.55;98.85
48053;BME280;33824;51.600;5.718;2023-08-06T07:40:14;100322.00;;;19.52;98.46
48053;BME280;33824;51.600;5.718;2023-08-06T07:42:40;100323.34;;;19.49;98.58
48053;BME280;33824;51.600;5.718;2023-08-06T07:45:06;100326.13;;;19.54;98.37
48053;BME280;33824;51.600;5.718;2023-08-06T07:47:32;100330.06;;;19.63;98.85
48053;BME280;33824;51.600;5.718;2023-08-06T07:49:58;100331.06;;;19.74;98.87
48053;BME280;33824;51.600;5.718;2023-08-06T07:52:23;100323.31;;;19.83;98.32
48053;BME280;33824;51.600;5.718;2023-08-06T07:54:49;100326.34;;;19.86;98.07
48053;BME280;33824;51.600;5.718;2023-08-06T07:57:15;100325.63;;;19.91;98.24
48053;BME280;33824;51.600;5.718;2023-08-06T07:59:41;100330.06;;;19.97;97.13
48053;BME280;33824;51.600;5.718;2023-08-06T08:02:06;100327.72;;;20.05;97.92
48053;BME280;33824;51.600;5.718;2023-08-06T08:04:32;100330.72;;;20.04;97.02
48053;BME280;33824;51.600;5.718;2023-08-06T08:06:57;100323.53;;;20.15;97.70
48053;BME280;33824;51.600;5.718;2023-08-06T08:09:23;100331.75;;;20.20;97.17
48053;BME280;33824;51.600;5.718;2023-08-06T08:11:49;100319.84;;;20.21;96.98
48053;BME280;33824;51.600;5.718;2023-08-06T08:14:15;100333.44;;;20.26;96.85
48053;BME280;33824;51.600;5.718;2023-08-06T08:16:41;100332.97;;;20.29;96.78
48053;BME280;33824;51.600;5.718;2023-08-06T08:19:07;100335.44;;;20.30;96.65
48053;BME280;33824;51.600;5.718;2023-08-06T08:21:33;100339.59;;;20.21;96.48
48053;BME280;33824;51.600;5.718;2023-08-06T08:24:00;100343.22;;;20.10;96.21
48053;BME280;33824;51.600;5.718;2023-08-06T08:26:26;100343.13;;;19.38;95.93
48053;BME280;33824;51.600;5.718;2023-08-06T08:28:53;100360.91;;;18.66;96.79
48053;BME280;33824;51.600;5.718;2023-08-06T08:31:19;100372.31;;;18.10;98.61
48053;BME280;33824;51.600;5.718;2023-08-06T08:33:44;100369.34;;;17.65;99.79
48053;BME280;33824;51.600;5.718;2023-08-06T08:36:10;100391.53;;;17.19;100.00
48053;BME280;33824;51.600;5.718;2023-08-06T08:38:36;100383.56;;;16.94;100.00
48053;BME280;33824;51.600;5.718;2023-08-06T08:41:01;100392.25;;;16.78;100.00
48053;BME280;33824;51.600;5.718;2023-08-06T08:43:27;100398.72;;;16.52;100.00
48053;BME280;33824;51.600;5.718;2023-08-06T08:45:54;100398.44;;;16.17;100.00
48053;BME280;33824;51.600;5.718;2023-08-06T08:48:26;100406.38;;;16.12;100.00
48053;BME280;33824;51.600;5.718;2023-08-06T08:50:55;100413.94;;;15.97;100.00
48053;BME280;33824;51.600;5.718;2023-08-06T08:53:21;100418.19;;;15.80;100.00
48053;BME280;33824;51.600;5.718;2023-08-06T08:55:48;100421.31;;;15.52;100.00
48053;BME280;33824;51.600;5.718;2023-08-06T08:58:14;100429.34;;;15.46;100.00
48053;BME280;33824;51.600;5.718;2023-08-06T09:00:42;100441.41;;;15.36;100.00
48053;BME280;33824;51.600;5.718;2023-08-06T09:03:08;100434.19;;;15.30;100.00
48053;BME280;33824;51.600;5.718;2023-08-06T09:05:33;100439.56;;;15.30;100.00
48053;BME280;33824;51.600;5.718;2023-08-06T09:08:04;100443.56;;;15.21;100.00
48053;BME280;33824;51.600;5.718;2023-08-06T09:10:30;100438.75;;;15.30;100.00
48053;BME280;33824;51.600;5.718;2023-08-06T09:12:57;100444.31;;;15.35;100.00
48053;BME280;33824;51.600;5.718;2023-08-06T09:15:27;100437.28;;;15.34;100.00
48053;BME280;33824;51.600;5.718;2023-08-06T09:17:53;100436.03;;;15.36;100.00
48053;BME280;33824;51.600;5.718;2023-08-06T09:20:21;100430.69;;;15.30;100.00
48053;BME280;33824;51.600;5.718;2023-08-06T09:22:47;100440.59;;;15.29;100.00
48053;BME280;33824;51.600;5.718;2023-08-06T09:25:23;100439.78;;;15.29;100.00
48053;BME280;33824;51.600;5.718;2023-08-06T09:27:50;100457.28;;;15.38;100.00
48053;BME280;33824;51.600;5.718;2023-08-06T09:30:32;100449.25;;;15.38;100.00
48053;BME280;33824;51.600;5.718;2023-08-06T09:32:58;100466.97;;;15.46;100.00
48053;BME280;33824;51.600;5.718;2023-08-06T09:35:23;100457.88;;;15.53;100.00
48053;BME280;33824;51.600;5.718;2023-08-06T09:37:49;100470.66;;;15.58;100.00
48053;BME280;33824;51.600;5.718;2023-08-06T09:40:24;100459.72;;;15.53;100.00
48053;BME280;33824;51.600;5.718;2023-08-06T09:42:50;100470.22;;;15.61;100.00
48053;BME280;33824;51.600;5.718;2023-08-06T09:45:16;100458.25;;;15.63;100.00
48053;BME280;33824;51.600;5.718;2023-08-06T09:47:42;100468.75;;;15.65;100.00
48053;BME280;33824;51.600;5.718;2023-08-06T09:50:18;100471.50;;;15.58;100.00
48053;BME280;33824;51.600;5.718;2023-08-06T09:52:44;100473.44;;;15.76;100.00
48053;BME280;33824;51.600;5.718;2023-08-06T09:55:14;100464.53;;;15.82;100.00
48053;BME280;33824;51.600;5.718;2023-08-06T09:57:40;100482.06;;;15.84;100.00
48053;BME280;33824;51.600;5.718;2023-08-06T10:00:08;100484.56;;;15.86;100.00
48053;BME280;33824;51.600;5.718;2023-08-06T10:02:38;100486.16;;;15.94;100.00
48053;BME280;33824;51.600;5.718;2023-08-06T10:05:05;100485.94;;;15.95;100.00
48053;BME280;33824;51.600;5.718;2023-08-06T10:07:31;100489.00;;;15.99;100.00
48053;BME280;33824;51.600;5.718;2023-08-06T10:09:58;100484.50;;;15.93;100.00
48053;BME280;33824;51.600;5.718;2023-08-06T10:12:29;100492.78;;;15.91;100.00
48053;BME280;33824;51.600;5.718;2023-08-06T10:14:59;100487.44;;;15.84;100.00
48053;BME280;33824;51.600;5.718;2023-08-06T10:17:27;100488.22;;;15.92;100.00
48053;BME280;33824;51.600;5.718;2023-08-06T10:19:54;100489.88;;;15.93;100.00
48053;BME280;33824;51.600;5.718;2023-08-06T10:22:22;100475.41;;;15.94;100.00
48053;BME280;33824;51.600;5.718;2023-08-06T10:24:55;100492.84;;;15.84;100.00
48053;BME280;33824;51.600;5.718;2023-08-06T10:27:30;100491.56;;;15.87;100.00
48053;BME280;33824;51.600;5.718;2023-08-06T10:30:29;100491.53;;;15.94;100.00
48053;BME280;33824;51.600;5.718;2023-08-06T10:33:02;100496.03;;;16.00;100.00
48053;BME280;33824;51.600;5.718;2023-08-06T10:38:14;100504.50;;;16.03;100.00
48053;BME280;33824;51.600;5.718;2023-08-06T10:43:27;100500.72;;;16.11;100.00
48053;BME280;33824;51.600;5.718;2023-08-06T10:45:53;100499.19;;;16.21;100.00
48053;BME280;33824;51.600;5.718;2023-08-06T10:48:39;100504.19;;;16.18;100.00
48053;BME280;33824;51.600;5.718;2023-08-06T10:51:09;100509.09;;;16.27;100.00
48053;BME280;33824;51.600;5.718;2023-08-06T10:53:35;100517.75;;;16.29;100.00
48053;BME280;33824;51.600;5.718;2023-08-06T10:56:01;100515.50;;;16.26;100.00
48053;BME280;33824;51.600;5.718;2023-08-06T10:58:33;100518.56;;;16.30;100.00
48053;BME280;33824;51.600;5.718;2023-08-06T11:00:59;100522.91;;;16.56;100.00
48053;BME280;33824;51.600;5.718;2023-08-06T11:03:26;100525.53;;;16.69;100.00
48053;BME280;33824;51.600;5.718;2023-08-06T11:05:52;100516.94;;;16.78;100.00
48053;BME280;33824;51.600;5.718;2023-08-06T11:08:28;100525.38;;;16.82;100.00
48053;BME280;33824;51.600;5.718;2023-08-06T11:10:54;100527.13;;;16.95;100.00
48053;BME280;33824;51.600;5.718;2023-08-06T11:13:20;100528.16;;;16.94;100.00
48053;BME280;33824;51.600;5.718;2023-08-06T11:15:46;100529.06;;;17.06;100.00
48053;BME280;33824;51.600;5.718;2023-08-06T11:18:12;100526.38;;;17.06;100.00
48053;BME280;33824;51.600;5.718;2023-08-06T11:20:38;100534.09;;;17.20;100.00
48053;BME280;33824;51.600;5.718;2023-08-06T11:23:05;100531.47;;;17.32;100.00
48053;BME280;33824;51.600;5.718;2023-08-06T11:25:30;100535.75;;;17.21;100.00
48053;BME280;33824;51.600;5.718;2023-08-06T11:27:56;100540.53;;;17.38;100.00
48053;BME280;33824;51.600;5.718;2023-08-06T11:30:21;100540.69;;;17.24;100.00
48053;BME280;33824;51.600;5.718;2023-08-06T11:32:47;100545.31;;;17.36;100.00
48053;BME280;33824;51.600;5.718;2023-08-06T11:35:14;100539.78;;;17.31;100.00
48053;BME280;33824;51.600;5.718;2023-08-06T11:37:44;100536.88;;;17.14;100.00
48053;BME280;33824;51.600;5.718;2023-08-06T11:40:10;100547.19;;;17.17;100.00
48053;BME280;33824;51.600;5.718;2023-08-06T11:42:37;100552.81;;;17.15;100.00
48053;BME280;33824;51.600;5.718;2023-08-06T11:45:04;100548.38;;;17.21;100.00
48053;BME280;33824;51.600;5.718;2023-08-06T11:47:29;100549.13;;;17.10;100.00
48053;BME280;33824;51.600;5.718;2023-08-06T11:49:55;100558.50;;;17.07;100.00
48053;BME280;33824;51.600;5.718;2023-08-06T11:55:08;100567.97;;;16.92;100.00
48053;BME280;33824;51.600;5.718;2023-08-06T11:57:36;100565.28;;;16.92;100.00
48053;BME280;33824;51.600;5.718;2023-08-06T12:00:12;100570.41;;;16.93;100.00
48053;BME280;33824;51.600;5.718;2023-08-06T12:02:43;100568.34;;;16.95;100.00
48053;BME280;33824;51.600;5.718;2023-08-06T12:07:37;100567.72;;;16.93;100.00
48053;BME280;33824;51.600;5.718;2023-08-06T12:10:03;100578.13;;;16.90;100.00
48053;BME280;33824;51.600;5.718;2023-08-06T12:12:29;100583.31;;;16.91;100.00
48053;BME280;33824;51.600;5.718;2023-08-06T12:14:55;100591.31;;;16.98;100.00
48053;BME280;33824;51.600;5.718;2023-08-06T12:17:22;100588.63;;;16.98;100.00
48053;BME280;33824;51.600;5.718;2023-08-06T12:19:47;100589.72;;;16.90;100.00
48053;BME280;33824;51.600;5.718;2023-08-06T12:22:13;100591.47;;;17.03;100.00
48053;BME280;33824;51.600;5.718;2023-08-06T12:24:41;100597.75;;;16.97;100.00
48053;BME280;33824;51.600;5.718;2023-08-06T12:27:06;100607.34;;;17.11;100.00
48053;BME280;33824;51.600;5.718;2023-08-06T12:29:32;100600.16;;;17.05;100.00
48053;BME280;33824;51.600;5.718;2023-08-06T12:31:57;100603.19;;;17.15;100.00
48053;BME280;33824;51.600;5.718;2023-08-06T12:34:23;100606.69;;;17.15;100.00
48053;BME280;33824;51.600;5.718;2023-08-06T12:36:48;100615.00;;;17.14;100.00
48053;BME280;33824;51.600;5.718;2023-08-06T12:39:14;100611.63;;;17.18;100.00
48053;BME280;33824;51.600;5.718;2023-08-06T12:41:39;100617.13;;;17.30;100.00
48053;BME280;33824;51.600;5.718;2023-08-06T12:44:05;100613.75;;;17.35;100.00
48053;BME280;33824;51.600;5.718;2023-08-06T12:46:31;100620.63;;;17.31;100.00
48053;BME280;33824;51.600;5.718;2023-08-06T12:48:56;100623.09;;;17.32;100.00
48053;BME280;33824;51.600;5.718;2023-08-06T12:51:23;100619.00;;;17.48;100.00